map of LSI home
LSI - Airport
Location
City:  Sumburgh, Shetland Islands, Scotland, United Kingdom
Near (Alt.):Sumburgh Cape
Name:Sumburgh Airport
Old (Alt.):RAF Sumburgh
ICAO:EGPB
IATA:LSI

Details
Type:Airport (Aerodrome, Airfield)
Use:Public/Civil, International (customs port of entry)
Latitude:5952'44"N (59.878889)
Longitude:117'44"W (-1.295555)
Datum:WGS 1984
Elevation:20 ft (6 m)
Variation:1.69W (WMM2015v2 magnetic declination)
0.23 annual change
Runways:3
Longest:4678 × 151 ft (1426 × 46 m), paved

Time
Time Zone:UTC+0 (DST+1)
Local Time:

Weather
METAR:EGPB 041350Z 33006KT 9999 FEW012 SCT024 06/03 Q1003 NOSIG

Related Locations
Nearby:
Farthest:SZS: 11435 mi / 18403 km
Ryan's Creek, Stewart Island, STL, NZ

Find:

   beyond  
but within

Other Information
Maps:
NOTAMs:
Links:
Sources:

  
  • flag of United Kingdom
  • flag of Scotland
  • flag of Shetland Islands
  

Sectional Chart

Flight Planning
at skyvector.com

Satellite Image

Google Maps Satellite view

 

Copyright © 2004-2019 Karl L. Swartz. All rights reserved.
The Great Circle Mapper name and logo are trademarks of the Great Circle Mapper.
All other trademarks mentioned herein belong to their respective owners.
Please see credits for attibutions and further copyright information.

  Follow gcmap on Facebook Follow gcmap on Twitter GCmap on LinkedIn

hCard Microformat

Geo Microformat